Station info - map view · info · telemetry · weather · raw · status · beacons · messages · bulletins · browse · moving · my account
Callsign, ship name or locator: Clear       
It is possible to search using wildcards (*?) after a prefix. Example: OH*
APRS station KF5SIJ-9 - show graphs
Map loading...
Comment: /TinyTrak4 Alpha
Mic-E message: In service
Location: 34°40.52' N 97°57.49' W - locator EM14AQ52AB - show map - static map
1.9 miles North bearing 360° from Marlow, Stephens County, Oklahoma, United States [?]
7.4 miles South bearing 181° from Rush Springs, Grady County, Oklahoma, United States
47.8 miles Southwest bearing 218° from Norman, Cleveland County, Oklahoma, United States
60.1 miles Southwest bearing 205° from Oklahoma City, Oklahoma County, Oklahoma, United States
Last position: 2019-04-19 08:39:59 EDT (17m47s ago)
2019-04-19 07:39:59 CDT local time at Marlow, United States [?]
Altitude: 1345 ft
Course: 179°
Speed: 54 MPH
Last telemetry: 2019-04-19 08:25:30 EDT (32m16s ago) – show telemetry
Sate: 144, Temp: 100 deg.F, Volts: 12.750 V
Last path: KF5SIJ-9>S4TP5R via WIDE1-1,WIDE2-1,qAR,ELGIN (good)
Positions stored: 66039
Packet rate: 67 seconds between packets on average during 3271 seconds.
Stations near current position of KF5SIJ-9 - show more
callsign distance last heard - EDT      callsign distance last heard - EDT
KK5QS2.4 miles 182°2019-04-08 21:17:34 KK5QS-N2.4 miles 196°2019-03-20 09:39:07
KK5QS-92.4 miles 195°2019-04-18 21:50:31 AC5AN3.7 miles 192°2019-04-19 08:53:16
AG5KE-54.8 miles 341°2019-04-13 13:31:16 KD5TDK11.3 miles 177°2019-04-17 23:20:29
KD5TDK-1011.3 miles 177°2019-04-16 22:06:41 KD5AXW11.8 miles 203°2019-04-15 18:53:58
K5BDW11.9 miles 184°2019-04-08 22:08:47 K5BDW-N11.9 miles 184°2019-04-08 23:01:33
ELGIN16.9 miles 291°2019-04-19 08:52:21 KG5DIR B16.9 miles 291°2019-04-19 08:53:34
KG5DIR-B16.9 miles 291°2019-04-19 08:53:44 AG5AN18.1 miles 351°2019-04-18 11:16:24
OUNSVR3PA19.5 miles 339°2019-04-04 00:20:09 WX5LAW C20.0 miles 260°2019-04-19 08:48:03
WX5LAW-C20.0 miles 260°2019-04-19 08:48:13 WX5LAW20.0 miles 260°2019-04-19 08:50:29
WX5LAW-R20.0 miles 260°2019-04-19 08:47:52 N5PLV20.1 miles 260°2019-04-19 08:36:55
Stations which heard KF5SIJ-9 directly on radio –
callsign pkts first heard - EDT last heard longest (tx => rx) longest at - EDT
SOKC 12 2019-04-15 14:06:43 2019-04-19 07:45:22 EM15EG > EM15GJ 9.6 miles 38° 2019-04-15 14:06:43
WB5LJZ-5 1 2019-04-15 06:46:16 2019-04-15 06:46:16 EL09QX > EL09ME 58.5 miles 200° 2019-04-15 06:46:16
W5NCD-15 1 2019-04-15 08:52:37 2019-04-15 08:52:37 EM01WL > EM11JI 54.0 miles 99° 2019-04-15 08:52:37
W5NGU-4 28 2019-04-15 11:12:40 2019-04-15 12:22:52 EM03XA > EM13HL 49.3 miles 49° 2019-04-15 11:12:40
W5LHG 28 2019-04-15 13:38:58 2019-04-19 08:23:22 EM14AV > EM15DD 22.3 miles 43° 2019-04-19 08:23:22
WX5II-6 23 2019-04-14 22:21:27 2019-04-15 06:58:17 EL09SX > EM00LB 36.8 miles 280° 2019-04-15 06:58:17
CHICKA 34 2019-04-15 13:31:20 2019-04-19 08:32:54 EM14AS > EM15AB 18.8 miles 2° 2019-04-19 08:32:54
WX5II-9 2 2019-04-15 06:54:57 2019-04-15 06:59:45 EL09SX > EL09PV 18.2 miles 254° 2019-04-15 06:59:45
WD5GIC-3 15 2019-04-15 09:53:29 2019-04-15 11:17:03 EM03XC > EM12CJ 49.6 miles 163° 2019-04-15 11:17:03
KA5GIL-1 9 2019-04-15 07:33:46 2019-04-15 08:07:15 EM00TK > EM00UP 12.6 miles 2° 2019-04-15 07:33:46
KB5RLJ-4 1 2019-04-15 10:48:44 2019-04-15 10:48:44 EM02WQ > EM12BL 18.4 miles 144° 2019-04-15 10:48:44
LAGRNG 1 2019-04-15 07:04:48 2019-04-15 07:04:48 EM00TA > EL19NV 91.0 miles 96° 2019-04-15 07:04:48
NORMAN 2 2019-04-15 14:05:15 2019-04-15 14:14:13 EM15EI > EM15HF 18.3 miles 123° 2019-04-15 14:14:13
W5GDL-5 280 2019-04-15 14:04:14 2019-04-19 07:52:31 EM15EF > EM15FL 17.6 miles 29° 2019-04-19 07:52:31
ELGIN 6 2019-04-15 13:11:01 2019-04-19 08:39:59 EM14AO > EM04VS 18.6 miles 309° 2019-04-15 13:11:01
WX5II-3 6 2019-04-15 06:59:15 2019-04-15 07:28:40 EM00TI > EL09WE 83.1 miles 169° 2019-04-15 07:28:40
KE5ASA-10 1 2019-04-15 12:40:34 2019-04-15 12:40:34 EM14AD > EM04TB 24.1 miles 255° 2019-04-15 12:40:34
N0PFE-1 17 2019-04-15 07:30:41 2019-04-15 08:13:28 EM00VV > EM00UL 27.9 miles 182° 2019-04-15 08:13:28

Only position packets which were originated by the station are shown here. The range statistics show some extra long hops, because some digipeaters do not correctly add themselves to the digipeater path. Please check the raw packets.
About this site
This page shows real-time information collected from the Automatic Position Reporting System Internet network (APRS-IS). APRS is used by amateur (ham) radio operators to transmit real-time position information, weather data, telemetry and messages over the radio. A vehicle equipped with a GPS receiver, a VHF transmitter or HF transceiver and a small computer device called a tracker transmits it's location, speed and course in a small data packet, which is then received by a nearby iGate receiving site which forwards the packet on the Internet. Systems connected to the Internet can send information on the APRS-IS without a radio transmitter, or collect and display information transmitted anywhere in the world.
FAQ · Blog · Discussion group · Linking to aprs.fi · AIS sites · Service status · Database statistics · Advertising on aprs.fi · Technical details · API · Change log · Planned changes · Credits and thanks · Terms Of Service · iPhone/iPad APRS